createdAt,value
2023-03-18T00:00:40.616Z,97985.00
2023-03-18T00:03:08.828Z,97978.00
2023-03-18T00:05:37.095Z,97986.00
2023-03-18T00:08:07.109Z,97986.00
2023-03-18T00:10:35.396Z,97981.00
2023-03-18T00:13:04.590Z,97991.00
2023-03-18T00:15:32.834Z,97992.00
2023-03-18T00:18:01.219Z,97991.00
2023-03-18T00:20:39.394Z,97984.00
2023-03-18T00:23:09.501Z,97975.00
2023-03-18T00:25:37.967Z,98001.00
2023-03-18T00:28:06.535Z,97993.00
2023-03-18T00:30:34.758Z,97999.00
2023-03-18T00:33:02.908Z,98000.00
2023-03-18T00:35:31.496Z,97998.00
2023-03-18T00:38:00.519Z,98002.00
2023-03-18T00:40:43.076Z,98005.00
2023-03-18T00:43:12.848Z,97999.00
2023-03-18T00:45:42.759Z,97999.00
2023-03-18T00:48:11.188Z,98012.00
2023-03-18T00:50:39.271Z,98000.00
2023-03-18T00:53:07.363Z,97994.00
2023-03-18T00:55:36.882Z,98003.00
2023-03-18T00:58:04.990Z,98010.00
2023-03-18T01:00:33.519Z,98013.00
2023-03-18T01:03:01.712Z,98001.00
2023-03-18T01:05:30.452Z,98010.00
2023-03-18T01:07:58.921Z,98007.00
2023-03-18T01:10:27.303Z,97996.00
2023-03-18T01:12:56.745Z,98002.00
2023-03-18T01:15:25.154Z,98007.00
2023-03-18T01:17:56.862Z,98016.00
2023-03-18T01:20:25.551Z,98018.00
2023-03-18T01:22:53.631Z,98026.00
2023-03-18T01:25:22.089Z,98023.00
2023-03-18T01:27:50.137Z,98018.00
2023-03-18T01:30:19.841Z,98016.00
2023-03-18T01:32:48.869Z,98027.00
2023-03-18T01:35:18.016Z,98013.00
2023-03-18T01:37:46.857Z,98013.00
2023-03-18T01:40:16.131Z,98038.00
2023-03-18T01:42:45.485Z,98029.00
2023-03-18T01:45:22.006Z,98034.00
2023-03-18T01:47:50.687Z,98043.00
2023-03-18T01:50:21.937Z,98036.00
2023-03-18T01:52:50.711Z,98039.00
2023-03-18T01:55:20.190Z,98038.00
2023-03-18T01:57:48.487Z,98037.00
2023-03-18T02:00:17.525Z,98050.00
2023-03-18T02:02:48.029Z,98044.00
2023-03-18T02:05:17.613Z,98044.00
2023-03-18T02:07:46.465Z,98040.00
2023-03-18T02:10:15.953Z,98043.00
2023-03-18T02:12:45.598Z,98037.00
2023-03-18T02:15:16.542Z,98051.00
2023-03-18T02:17:48.764Z,98040.00
2023-03-18T02:20:22.364Z,98042.00
2023-03-18T02:22:53.527Z,98054.00
2023-03-18T02:25:28.856Z,98042.00
2023-03-18T02:28:00.328Z,98054.00
2023-03-18T02:30:29.675Z,98060.00
2023-03-18T02:32:58.443Z,98061.00
2023-03-18T02:35:26.673Z,98057.00
2023-03-18T02:37:54.767Z,98068.00
2023-03-18T02:40:27.396Z,98059.00
2023-03-18T02:42:55.461Z,98064.00
2023-03-18T02:45:31.885Z,98059.00
2023-03-18T02:47:59.916Z,98071.00
2023-03-18T02:50:28.113Z,98063.00
2023-03-18T02:52:56.294Z,98066.00
2023-03-18T02:55:24.303Z,98067.00
2023-03-18T02:57:52.389Z,98073.00
2023-03-18T03:00:20.748Z,98079.00
2023-03-18T03:02:50.215Z,98072.00
2023-03-18T03:05:18.542Z,98076.00
2023-03-18T03:07:46.743Z,98079.00
2023-03-18T03:10:14.760Z,98072.00
2023-03-18T03:12:42.776Z,98084.00
2023-03-18T03:15:11.557Z,98085.00
2023-03-18T03:17:39.623Z,98084.00
2023-03-18T03:20:10.727Z,98093.00
2023-03-18T03:22:38.794Z,98091.00
2023-03-18T03:25:07.958Z,98091.00
2023-03-18T03:27:36.728Z,98103.00
2023-03-18T03:30:05.501Z,98091.00
2023-03-18T03:32:33.600Z,98085.00
2023-03-18T03:35:01.812Z,98088.00
2023-03-18T03:37:31.388Z,98089.00
2023-03-18T03:40:00.059Z,98085.00
2023-03-18T03:42:28.092Z,98095.00
2023-03-18T03:44:56.124Z,98101.00
2023-03-18T03:47:24.303Z,98099.00
2023-03-18T03:49:52.557Z,98097.00
2023-03-18T03:52:20.937Z,98109.00
2023-03-18T03:54:50.434Z,98113.00
2023-03-18T03:57:18.517Z,98117.00
2023-03-18T03:59:46.630Z,98120.00
2023-03-18T04:02:14.929Z,98111.00
2023-03-18T04:04:43.369Z,98113.00
2023-03-18T04:07:11.913Z,98118.00
2023-03-18T04:09:41.189Z,98115.00
2023-03-18T04:12:12.053Z,98115.00
2023-03-18T04:14:40.129Z,98118.00
2023-03-18T04:17:08.149Z,98108.00
2023-03-18T04:19:36.181Z,98116.00
2023-03-18T04:22:04.198Z,98122.00
2023-03-18T04:24:32.512Z,98111.00
2023-03-18T04:27:00.535Z,98120.00
2023-03-18T04:29:30.007Z,98114.00
2023-03-18T04:31:59.101Z,98117.00
2023-03-18T04:34:27.479Z,98107.00
2023-03-18T04:36:56.338Z,98118.00
2023-03-18T04:39:24.375Z,98112.00
2023-03-18T04:41:52.365Z,98114.00
2023-03-18T04:44:21.060Z,98126.00
2023-03-18T04:46:50.571Z,98118.00
2023-03-18T04:49:19.784Z,98121.00
2023-03-18T04:51:47.909Z,98115.00
2023-03-18T04:54:15.980Z,98121.00
2023-03-18T04:56:44.753Z,98114.00
2023-03-18T04:59:12.843Z,98107.00
2023-03-18T05:01:40.959Z,98107.00
2023-03-18T05:04:10.485Z,98104.00
2023-03-18T05:06:38.749Z,98116.00
2023-03-18T05:09:06.871Z,98109.00
2023-03-18T05:11:35.056Z,98117.00
2023-03-18T05:14:03.101Z,98124.00
2023-03-18T05:16:31.200Z,98125.00
2023-03-18T05:18:59.232Z,98124.00
2023-03-18T05:21:30.473Z,98123.00
2023-03-18T05:23:58.622Z,98118.00
2023-03-18T05:26:26.682Z,98121.00
2023-03-18T05:28:54.801Z,98125.00
2023-03-18T05:31:23.014Z,98124.00
2023-03-18T05:33:51.243Z,98135.00
2023-03-18T05:36:19.352Z,98132.00
2023-03-18T05:38:48.785Z,98125.00
2023-03-18T05:41:16.810Z,98131.00
2023-03-18T05:43:44.846Z,98139.00
2023-03-18T05:46:12.974Z,98134.00
2023-03-18T05:48:41.653Z,98136.00
2023-03-18T05:51:10.067Z,98139.00
2023-03-18T05:53:38.655Z,98135.00
2023-03-18T05:56:08.469Z,98135.00
2023-03-18T05:58:36.507Z,98134.00
2023-03-18T06:01:04.659Z,98131.00
2023-03-18T06:03:32.865Z,98135.00
2023-03-18T06:06:00.906Z,98127.00
2023-03-18T06:08:28.957Z,98127.00
2023-03-18T06:10:57.053Z,98125.00
2023-03-18T06:13:26.477Z,98121.00
2023-03-18T06:15:57.979Z,98133.00
2023-03-18T06:18:26.464Z,98135.00
2023-03-18T06:20:54.604Z,98138.00
2023-03-18T06:23:22.702Z,98141.00
2023-03-18T06:25:51.073Z,98138.00
2023-03-18T06:28:19.147Z,98138.00
2023-03-18T06:30:48.579Z,98138.00
2023-03-18T06:33:16.695Z,98132.00
2023-03-18T06:35:44.831Z,98156.00
2023-03-18T06:38:14.560Z,98140.00
2023-03-18T06:40:42.680Z,98148.00
2023-03-18T06:43:11.013Z,98157.00
2023-03-18T06:45:39.165Z,98164.00
2023-03-18T06:48:09.629Z,98169.00
2023-03-18T06:50:39.638Z,98171.00
2023-03-18T06:53:07.828Z,98173.00
2023-03-18T06:55:36.038Z,98173.00
2023-03-18T06:58:05.544Z,98171.00
2023-03-18T07:00:34.049Z,98176.00
2023-03-18T07:03:02.497Z,98174.00
2023-03-18T07:05:33.103Z,98175.00
2023-03-18T07:08:01.639Z,98179.00
2023-03-18T07:10:30.850Z,98180.00
2023-03-18T07:12:59.904Z,98176.00
2023-03-18T07:15:28.769Z,98184.00
2023-03-18T07:17:56.839Z,98177.00
2023-03-18T07:20:24.950Z,98183.00
2023-03-18T07:22:54.686Z,98182.00
2023-03-18T07:25:29.321Z,98179.00
2023-03-18T07:28:01.327Z,98186.00
2023-03-18T07:30:30.493Z,98190.00
2023-03-18T07:32:58.780Z,98176.00
2023-03-18T07:35:27.610Z,98184.00
2023-03-18T07:37:57.110Z,98178.00
2023-03-18T07:40:25.422Z,98179.00
2023-03-18T07:42:53.644Z,98179.00
2023-03-18T07:45:21.749Z,98186.00
2023-03-18T07:47:49.873Z,98186.00
2023-03-18T07:50:18.464Z,98181.00
2023-03-18T07:52:46.552Z,98175.00
2023-03-18T07:55:16.092Z,98189.00
2023-03-18T07:57:44.133Z,98195.00
2023-03-18T08:00:14.256Z,98201.00
2023-03-18T08:02:42.541Z,98206.00
2023-03-18T08:05:11.418Z,98204.00
2023-03-18T08:07:39.492Z,98205.00
2023-03-18T08:10:09.349Z,98206.00
2023-03-18T08:12:52.062Z,98213.00
2023-03-18T08:15:22.010Z,98225.00
2023-03-18T08:17:50.142Z,98221.00
2023-03-18T08:20:18.472Z,98227.00
2023-03-18T08:22:46.882Z,98213.00
2023-03-18T08:25:15.362Z,98217.00
2023-03-18T08:27:44.822Z,98216.00
2023-03-18T08:30:14.081Z,98223.00
2023-03-18T08:32:42.234Z,98229.00
2023-03-18T08:35:11.227Z,98224.00
2023-03-18T08:37:39.303Z,98214.00
2023-03-18T08:40:09.935Z,98220.00
2023-03-18T08:42:38.012Z,98215.00
2023-03-18T08:45:08.829Z,98216.00
2023-03-18T08:47:36.965Z,98218.00
2023-03-18T08:50:05.903Z,98212.00
2023-03-18T08:52:33.920Z,98205.00
2023-03-18T08:55:02.350Z,98213.00
2023-03-18T08:57:30.413Z,98211.00
2023-03-18T08:59:58.817Z,98215.00
2023-03-18T09:02:28.679Z,98205.00
2023-03-18T09:04:56.708Z,98214.00
2023-03-18T09:07:24.776Z,98209.00
2023-03-18T09:09:54.150Z,98207.00
2023-03-18T09:12:22.662Z,98214.00
2023-03-18T09:14:50.719Z,98210.00
2023-03-18T09:17:18.841Z,98209.00
2023-03-18T09:19:48.544Z,98206.00
2023-03-18T09:22:16.702Z,98205.00
2023-03-18T09:24:44.755Z,98214.00
2023-03-18T09:27:13.054Z,98207.00
2023-03-18T09:29:41.707Z,98214.00
2023-03-18T09:32:09.877Z,98206.00
2023-03-18T09:34:41.125Z,98207.00
2023-03-18T09:37:11.042Z,98216.00
2023-03-18T09:39:39.093Z,98209.00
2023-03-18T09:42:17.550Z,98209.00
2023-03-18T09:44:45.591Z,98213.00
2023-03-18T09:47:24.807Z,98202.00
2023-03-18T09:50:00.275Z,98212.00
2023-03-18T09:52:30.601Z,98208.00
2023-03-18T09:54:59.831Z,98208.00
2023-03-18T09:57:28.982Z,98207.00
2023-03-18T10:00:00.427Z,98204.00
2023-03-18T10:02:32.761Z,98213.00
2023-03-18T10:05:01.932Z,98216.00
2023-03-18T10:07:34.357Z,98211.00
2023-03-18T10:10:04.345Z,98211.00
2023-03-18T10:12:33.764Z,98213.00
2023-03-18T10:15:06.767Z,98202.00
2023-03-18T10:17:37.355Z,98203.00
2023-03-18T10:20:16.803Z,98195.00
2023-03-18T10:22:54.336Z,98203.00
2023-03-18T10:25:27.187Z,98196.00
2023-03-18T10:28:02.047Z,98196.00
2023-03-18T10:30:39.158Z,98192.00
2023-03-18T10:33:10.659Z,98201.00
2023-03-18T10:35:39.890Z,98199.00
2023-03-18T10:38:16.070Z,98197.00
2023-03-18T10:40:44.159Z,98187.00
2023-03-18T10:43:15.089Z,98186.00
2023-03-18T10:45:43.293Z,98189.00
2023-03-18T10:48:16.057Z,98187.00
2023-03-18T10:50:45.109Z,98184.00
2023-03-18T10:53:17.907Z,98187.00
2023-03-18T10:55:51.551Z,98181.00
2023-03-18T10:58:20.087Z,98183.00
2023-03-18T11:00:48.249Z,98175.00
2023-03-18T11:03:21.984Z,98172.00
2023-03-18T11:05:50.583Z,98168.00
2023-03-18T11:08:36.944Z,98173.00
2023-03-18T11:11:22.654Z,98181.00
2023-03-18T11:13:52.960Z,98168.00
2023-03-18T11:16:29.724Z,98163.00
2023-03-18T11:18:58.173Z,98182.00
2023-03-18T11:21:26.431Z,98168.00
2023-03-18T11:24:08.615Z,98169.00
2023-03-18T11:26:47.800Z,98180.00
2023-03-18T11:29:18.630Z,98174.00
2023-03-18T11:31:51.928Z,98175.00
2023-03-18T11:34:20.246Z,98165.00
2023-03-18T11:36:55.541Z,98174.00
2023-03-18T11:39:27.007Z,98170.00
2023-03-18T11:41:55.113Z,98154.00
2023-03-18T11:44:29.668Z,98158.00
2023-03-18T11:47:02.962Z,98147.00
2023-03-18T11:49:31.488Z,98158.00
2023-03-18T11:52:06.639Z,98153.00
2023-03-18T11:54:55.604Z,98135.00
2023-03-18T11:57:24.668Z,98141.00
2023-03-18T12:00:05.794Z,98133.00
2023-03-18T12:02:56.340Z,98126.00
2023-03-18T12:05:41.926Z,98141.00
2023-03-18T12:08:14.884Z,98132.00
2023-03-18T12:10:48.428Z,98132.00
2023-03-18T12:13:32.634Z,98119.00
2023-03-18T12:16:05.181Z,98118.00
2023-03-18T12:18:43.893Z,98119.00
2023-03-18T12:21:22.633Z,98123.00
2023-03-18T12:23:58.234Z,98124.00
2023-03-18T12:26:29.633Z,98119.00
2023-03-18T12:29:37.139Z,98108.00
2023-03-18T12:32:16.352Z,98112.00
2023-03-18T12:35:02.618Z,98109.00
2023-03-18T12:37:35.659Z,98111.00
2023-03-18T12:40:12.659Z,98117.00
2023-03-18T12:42:56.307Z,98110.00
2023-03-18T12:45:25.520Z,98101.00
2023-03-18T12:47:56.240Z,98116.00
2023-03-18T12:50:25.570Z,98101.00
2023-03-18T12:52:55.109Z,98105.00
2023-03-18T12:55:24.560Z,98098.00
2023-03-18T12:57:54.627Z,98100.00
2023-03-18T13:00:25.639Z,98099.00
2023-03-18T13:02:59.212Z,98099.00
2023-03-18T13:05:32.197Z,98093.00
2023-03-18T13:08:15.506Z,98100.00
2023-03-18T13:10:43.606Z,98098.00
2023-03-18T13:13:13.141Z,98097.00
2023-03-18T13:15:42.727Z,98089.00
2023-03-18T13:18:15.349Z,98085.00
2023-03-18T13:20:43.372Z,98087.00
2023-03-18T13:23:17.384Z,98087.00
2023-03-18T13:25:51.191Z,98089.00
2023-03-18T13:28:42.632Z,98088.00
2023-03-18T13:31:12.077Z,98084.00
2023-03-18T13:33:53.209Z,98076.00
2023-03-18T13:36:50.836Z,98077.00
2023-03-18T13:39:24.075Z,98082.00
2023-03-18T13:42:04.907Z,98074.00
2023-03-18T13:44:39.549Z,98085.00
2023-03-18T13:47:09.097Z,98097.00
2023-03-18T13:49:39.235Z,98072.00
2023-03-18T13:52:24.035Z,98083.00
2023-03-18T13:54:52.646Z,98081.00
2023-03-18T13:57:33.962Z,98077.00
2023-03-18T14:00:25.418Z,98072.00
2023-03-18T14:03:06.121Z,98079.00
2023-03-18T14:05:36.068Z,98070.00
2023-03-18T14:08:23.419Z,98073.00
2023-03-18T14:10:51.526Z,98068.00
2023-03-18T14:13:27.530Z,98074.00
2023-03-18T14:15:58.557Z,98069.00
2023-03-18T14:18:28.109Z,98063.00
2023-03-18T14:21:04.619Z,98058.00
2023-03-18T14:23:40.973Z,98060.00
2023-03-18T14:26:19.214Z,98070.00
2023-03-18T14:28:48.916Z,98063.00
2023-03-18T14:31:26.636Z,98067.00
2023-03-18T14:34:25.390Z,98062.00
2023-03-18T14:37:25.430Z,98056.00
2023-03-18T14:39:55.023Z,98050.00
2023-03-18T14:42:38.185Z,98057.00
2023-03-18T14:45:07.781Z,98048.00
2023-03-18T14:47:44.611Z,98041.00
2023-03-18T14:50:23.289Z,98042.00
2023-03-18T14:52:55.725Z,98049.00
2023-03-18T14:55:25.715Z,98045.00
2023-03-18T14:57:53.829Z,98044.00
2023-03-18T15:00:24.206Z,98043.00
2023-03-18T15:03:00.684Z,98044.00
2023-03-18T15:05:32.820Z,98034.00
2023-03-18T15:08:00.966Z,98045.00
2023-03-18T15:10:30.632Z,98040.00
2023-03-18T15:13:00.222Z,98044.00
2023-03-18T15:15:28.251Z,98045.00
2023-03-18T15:17:57.792Z,98042.00
2023-03-18T15:20:25.883Z,98041.00
2023-03-18T15:22:54.319Z,98041.00
2023-03-18T15:25:22.543Z,98045.00
2023-03-18T15:27:50.765Z,98047.00
2023-03-18T15:30:26.567Z,98034.00
2023-03-18T15:33:04.647Z,98042.00
2023-03-18T15:35:33.070Z,98039.00
2023-03-18T15:38:12.897Z,98042.00
2023-03-18T15:40:48.174Z,98039.00
2023-03-18T15:43:19.464Z,98040.00
2023-03-18T15:45:48.460Z,98047.00
2023-03-18T15:48:23.925Z,98048.00
2023-03-18T15:50:56.244Z,98049.00
2023-03-18T15:53:25.509Z,98041.00
2023-03-18T15:55:55.414Z,98055.00
2023-03-18T15:58:26.363Z,98051.00
2023-03-18T16:00:55.122Z,98048.00
2023-03-18T16:03:27.648Z,98052.00
2023-03-18T16:05:55.888Z,98053.00
2023-03-18T16:08:24.082Z,98055.00
2023-03-18T16:10:53.936Z,98042.00
2023-03-18T16:13:24.425Z,98041.00
2023-03-18T16:15:53.241Z,98043.00
2023-03-18T16:18:21.368Z,98049.00
2023-03-18T16:20:51.185Z,98049.00
2023-03-18T16:23:19.303Z,98039.00
2023-03-18T16:25:48.439Z,98046.00
2023-03-18T16:28:19.224Z,98039.00
2023-03-18T16:30:47.611Z,98040.00
2023-03-18T16:33:17.001Z,98035.00
2023-03-18T16:35:45.756Z,98044.00
2023-03-18T16:38:16.478Z,98055.00
2023-03-18T16:40:44.627Z,98059.00
2023-03-18T16:43:17.155Z,98055.00
2023-03-18T16:45:45.222Z,98048.00
2023-03-18T16:48:14.729Z,98049.00
2023-03-18T16:50:42.825Z,98052.00
2023-03-18T16:53:17.613Z,98058.00
2023-03-18T16:55:46.818Z,98053.00
2023-03-18T16:58:17.799Z,98059.00
2023-03-18T17:00:48.311Z,98066.00
2023-03-18T17:03:18.232Z,98063.00
2023-03-18T17:05:47.338Z,98068.00
2023-03-18T17:08:17.019Z,98074.00
2023-03-18T17:10:45.390Z,98075.00
2023-03-18T17:13:19.609Z,98071.00
2023-03-18T17:15:47.610Z,98075.00
2023-03-18T17:18:16.531Z,98076.00
2023-03-18T17:20:45.043Z,98075.00
2023-03-18T17:23:19.572Z,98069.00
2023-03-18T17:25:52.227Z,98068.00
2023-03-18T17:28:25.008Z,98073.00
2023-03-18T17:30:53.223Z,98089.00
2023-03-18T17:33:24.347Z,98088.00
2023-03-18T17:35:52.744Z,98086.00
2023-03-18T17:38:22.359Z,98080.00
2023-03-18T17:40:50.542Z,98083.00
2023-03-18T17:43:20.781Z,98074.00
2023-03-18T17:45:48.864Z,98083.00
2023-03-18T17:48:20.039Z,98083.00
2023-03-18T17:50:48.612Z,98088.00
2023-03-18T17:53:26.842Z,98087.00
2023-03-18T17:55:55.066Z,98086.00
2023-03-18T17:58:24.678Z,98082.00
2023-03-18T18:00:54.011Z,98077.00
2023-03-18T18:03:24.391Z,98083.00
2023-03-18T18:05:53.976Z,98096.00
2023-03-18T18:08:24.454Z,98100.00
2023-03-18T18:10:52.938Z,98093.00
2023-03-18T18:13:22.283Z,98089.00
2023-03-18T18:15:50.907Z,98087.00
2023-03-18T18:18:24.636Z,98097.00
2023-03-18T18:20:54.812Z,98097.00
2023-03-18T18:23:26.244Z,98092.00
2023-03-18T18:25:54.360Z,98082.00
2023-03-18T18:28:23.202Z,98096.00
2023-03-18T18:30:51.480Z,98092.00
2023-03-18T18:33:19.571Z,98094.00
2023-03-18T18:35:47.921Z,98097.00
2023-03-18T18:38:15.986Z,98091.00
2023-03-18T18:40:46.460Z,98093.00
2023-03-18T18:43:14.537Z,98087.00
2023-03-18T18:45:42.973Z,98091.00
2023-03-18T18:48:14.015Z,98096.00
2023-03-18T18:50:42.513Z,98098.00
2023-03-18T18:53:18.673Z,98099.00
2023-03-18T18:55:49.225Z,98090.00
2023-03-18T18:58:18.760Z,98091.00
2023-03-18T19:00:48.588Z,98093.00
2023-03-18T19:03:18.029Z,98101.00
2023-03-18T19:05:46.230Z,98103.00
2023-03-18T19:08:32.287Z,98100.00
2023-03-18T19:11:02.500Z,98086.00
2023-03-18T19:13:31.381Z,98095.00
2023-03-18T19:16:00.855Z,98100.00
2023-03-18T19:18:32.994Z,98098.00
2023-03-18T19:21:01.496Z,98095.00
2023-03-18T19:23:30.872Z,98101.00
2023-03-18T19:25:59.650Z,98097.00
2023-03-18T19:28:47.725Z,98099.00
2023-03-18T19:31:20.289Z,98102.00
2023-03-18T19:33:50.695Z,98111.00
2023-03-18T19:36:23.883Z,98104.00
2023-03-18T19:38:52.058Z,98107.00
2023-03-18T19:41:21.626Z,98100.00
2023-03-18T19:43:51.423Z,98101.00
2023-03-18T19:46:23.766Z,98102.00
2023-03-18T19:48:52.483Z,98104.00
2023-03-18T19:51:23.000Z,98106.00
2023-03-18T19:53:51.314Z,98107.00
2023-03-18T19:56:26.406Z,98118.00
2023-03-18T19:58:57.652Z,98112.00
2023-03-18T20:01:29.162Z,98123.00
2023-03-18T20:03:58.723Z,98119.00
2023-03-18T20:06:27.098Z,98119.00
2023-03-18T20:08:55.891Z,98125.00
2023-03-18T20:11:25.013Z,98133.00
2023-03-18T20:13:53.163Z,98128.00
2023-03-18T20:16:22.834Z,98133.00
2023-03-18T20:18:51.656Z,98143.00
2023-03-18T20:21:22.701Z,98140.00
2023-03-18T20:23:50.878Z,98138.00
2023-03-18T20:26:18.983Z,98135.00
2023-03-18T20:28:47.099Z,98138.00
2023-03-18T20:31:15.497Z,98131.00
2023-03-18T20:33:44.934Z,98135.00
2023-03-18T20:36:15.522Z,98139.00
2023-03-18T20:38:43.709Z,98140.00
2023-03-18T20:41:12.799Z,98144.00
2023-03-18T20:43:40.928Z,98140.00
2023-03-18T20:46:10.197Z,98142.00
2023-03-18T20:48:38.737Z,98148.00
2023-03-18T20:51:11.615Z,98154.00
2023-03-18T20:53:39.819Z,98149.00
2023-03-18T20:56:08.751Z,98151.00
2023-03-18T20:58:37.215Z,98148.00
2023-03-18T21:01:05.700Z,98151.00
2023-03-18T21:03:34.773Z,98155.00
2023-03-18T21:06:03.627Z,98160.00
2023-03-18T21:08:33.311Z,98161.00
2023-03-18T21:11:02.316Z,98160.00
2023-03-18T21:13:32.127Z,98155.00
2023-03-18T21:16:00.751Z,98155.00
2023-03-18T21:18:29.043Z,98153.00
2023-03-18T21:20:57.761Z,98157.00
2023-03-18T21:23:27.062Z,98150.00
2023-03-18T21:25:57.010Z,98153.00
2023-03-18T21:28:25.998Z,98146.00
2023-03-18T21:30:57.862Z,98152.00
2023-03-18T21:33:27.439Z,98156.00
2023-03-18T21:35:57.061Z,98154.00
2023-03-18T21:38:25.678Z,98152.00
2023-03-18T21:40:54.030Z,98156.00
2023-03-18T21:43:28.344Z,98164.00
2023-03-18T21:45:56.667Z,98154.00
2023-03-18T21:48:24.733Z,98161.00
2023-03-18T21:50:54.131Z,98158.00
2023-03-18T21:53:22.986Z,98161.00
2023-03-18T21:55:51.581Z,98157.00
2023-03-18T21:58:20.441Z,98140.00
2023-03-18T22:00:50.672Z,98150.00
2023-03-18T22:03:19.472Z,98154.00
2023-03-18T22:05:48.800Z,98150.00
2023-03-18T22:08:17.335Z,98149.00
2023-03-18T22:10:45.622Z,98149.00
2023-03-18T22:13:24.461Z,98138.00
2023-03-18T22:15:53.982Z,98146.00
2023-03-18T22:18:22.168Z,98139.00
2023-03-18T22:20:51.427Z,98146.00
2023-03-18T22:23:20.494Z,98140.00
2023-03-18T22:25:49.756Z,98152.00
2023-03-18T22:28:18.264Z,98149.00
2023-03-18T22:30:47.257Z,98149.00
2023-03-18T22:33:21.136Z,98149.00
2023-03-18T22:35:49.466Z,98142.00
2023-03-18T22:38:18.104Z,98148.00
2023-03-18T22:40:46.814Z,98153.00
2023-03-18T22:43:21.183Z,98151.00
2023-03-18T22:45:49.397Z,98158.00
2023-03-18T22:48:19.397Z,98156.00
2023-03-18T22:50:47.590Z,98156.00
2023-03-18T22:53:19.275Z,98158.00
2023-03-18T22:55:47.366Z,98156.00
2023-03-18T22:58:19.192Z,98160.00
2023-03-18T23:00:47.287Z,98167.00
2023-03-18T23:03:17.581Z,98162.00
2023-03-18T23:05:47.282Z,98162.00
2023-03-18T23:08:15.393Z,98170.00
2023-03-18T23:10:43.811Z,98159.00
2023-03-18T23:13:16.393Z,98166.00
2023-03-18T23:15:44.499Z,98163.00
2023-03-18T23:18:13.885Z,98156.00
2023-03-18T23:20:42.115Z,98163.00
2023-03-18T23:23:11.766Z,98163.00
2023-03-18T23:25:40.007Z,98166.00
2023-03-18T23:28:08.285Z,98170.00
2023-03-18T23:30:36.600Z,98157.00
2023-03-18T23:33:04.841Z,98156.00
2023-03-18T23:35:33.708Z,98150.00
2023-03-18T23:38:02.685Z,98171.00
2023-03-18T23:40:32.190Z,98164.00
2023-03-18T23:43:00.371Z,98162.00
2023-03-18T23:45:28.790Z,98158.00
2023-03-18T23:47:56.941Z,98167.00
2023-03-18T23:50:25.154Z,98175.00
2023-03-18T23:52:53.175Z,98169.00
2023-03-18T23:55:33.958Z,98163.00
2023-03-18T23:58:04.645Z,98167.00
